sensor_id;sensor_type;location;lat;lon;timestamp;pressure;altitude;pressure_sealevel;temperature;humidity
36664;BME280;53333;51.976;20.144;2022-11-22T00:00:03;99171.81;;;3.56;67.28
36664;BME280;53333;51.976;20.144;2022-11-22T00:02:40;99173.63;;;3.54;67.10
36664;BME280;53333;51.976;20.144;2022-11-22T00:05:16;99169.28;;;3.53;67.34
36664;BME280;53333;51.976;20.144;2022-11-22T00:07:50;99184.28;;;3.51;67.28
36664;BME280;53333;51.976;20.144;2022-11-22T00:10:24;99190.50;;;3.50;67.44
36664;BME280;53333;51.976;20.144;2022-11-22T00:12:58;99185.38;;;3.45;67.49
36664;BME280;53333;51.976;20.144;2022-11-22T00:15:32;99187.31;;;3.40;67.58
36664;BME280;53333;51.976;20.144;2022-11-22T00:18:07;99188.22;;;3.39;67.75
36664;BME280;53333;51.976;20.144;2022-11-22T00:20:41;99175.03;;;3.39;67.83
36664;BME280;53333;51.976;20.144;2022-11-22T00:23:15;99187.38;;;3.38;67.82
36664;BME280;53333;51.976;20.144;2022-11-22T00:25:49;99191.78;;;3.38;67.86
36664;BME280;53333;51.976;20.144;2022-11-22T00:28:22;99188.22;;;3.39;67.65
36664;BME280;53333;51.976;20.144;2022-11-22T00:30:56;99184.69;;;3.40;67.66
36664;BME280;53333;51.976;20.144;2022-11-22T00:33:31;99187.38;;;3.38;67.90
36664;BME280;53333;51.976;20.144;2022-11-22T00:36:05;99188.22;;;3.39;67.81
36664;BME280;53333;51.976;20.144;2022-11-22T00:38:38;99180.78;;;3.50;67.22
36664;BME280;53333;51.976;20.144;2022-11-22T00:41:12;99189.97;;;3.40;67.62
36664;BME280;53333;51.976;20.144;2022-11-22T00:43:45;99197.88;;;3.40;67.67
36664;BME280;53333;51.976;20.144;2022-11-22T00:46:19;99194.31;;;3.41;67.74
36664;BME280;53333;51.976;20.144;2022-11-22T00:48:54;99190.81;;;3.40;68.01
36664;BME280;53333;51.976;20.144;2022-11-22T00:51:27;99194.31;;;3.41;67.91
36664;BME280;53333;51.976;20.144;2022-11-22T00:54:01;99193.41;;;3.42;68.00
36664;BME280;53333;51.976;20.144;2022-11-22T00:56:34;99196.06;;;3.42;68.06
36664;BME280;53333;51.976;20.144;2022-11-22T00:59:08;99193.34;;;3.43;68.11
36664;BME280;53333;51.976;20.144;2022-11-22T01:01:41;99210.84;;;3.46;68.14
36664;BME280;53333;51.976;20.144;2022-11-22T01:04:17;99205.69;;;3.43;68.06
36664;BME280;53333;51.976;20.144;2022-11-22T01:06:50;99207.50;;;3.41;68.08
36664;BME280;53333;51.976;20.144;2022-11-22T01:09:27;99201.38;;;3.40;68.30
36664;BME280;53333;51.976;20.144;2022-11-22T01:12:00;99199.22;;;3.52;67.59
36664;BME280;53333;51.976;20.144;2022-11-22T01:14:34;99203.97;;;3.42;67.89
36664;BME280;53333;51.976;20.144;2022-11-22T01:17:08;99217.22;;;3.40;67.93
36664;BME280;53333;51.976;20.144;2022-11-22T01:19:43;99217.22;;;3.40;68.17
36664;BME280;53333;51.976;20.144;2022-11-22T01:22:16;99224.22;;;3.41;68.28
36664;BME280;53333;51.976;20.144;2022-11-22T01:24:50;99230.38;;;3.42;68.27
36664;BME280;53333;51.976;20.144;2022-11-22T01:27:23;99235.72;;;3.40;68.29
36664;BME280;53333;51.976;20.144;2022-11-22T01:29:57;99241.88;;;3.39;68.37
36664;BME280;53333;51.976;20.144;2022-11-22T01:32:30;99244.59;;;3.38;68.36
36664;BME280;53333;51.976;20.144;2022-11-22T01:35:06;99250.91;;;3.34;68.41
36664;BME280;53333;51.976;20.144;2022-11-22T01:37:41;99261.59;;;3.29;68.43
36664;BME280;53333;51.976;20.144;2022-11-22T01:40:15;99253.78;;;3.26;68.45
36664;BME280;53333;51.976;20.144;2022-11-22T01:42:50;99259.22;;;3.21;68.53
36664;BME280;53333;51.976;20.144;2022-11-22T01:45:41;99262.81;;;3.19;68.58
36664;BME280;53333;51.976;20.144;2022-11-22T01:48:20;99264.06;;;3.07;68.80
36664;BME280;53333;51.976;20.144;2022-11-22T01:51:01;99261.69;;;2.99;68.97
36664;BME280;53333;51.976;20.144;2022-11-22T01:53:37;99267.94;;;2.95;69.20
36664;BME280;53333;51.976;20.144;2022-11-22T01:56:13;99264.47;;;2.95;69.35
36664;BME280;53333;51.976;20.144;2022-11-22T01:58:52;99270.53;;;2.97;69.28
36664;BME280;53333;51.976;20.144;2022-11-22T02:01:28;99265.22;;;2.98;69.34
36664;BME280;53333;51.976;20.144;2022-11-22T02:04:04;99270.44;;;3.00;69.27
36664;BME280;53333;51.976;20.144;2022-11-22T02:06:48;99280.84;;;3.04;69.41
36664;BME280;53333;51.976;20.144;2022-11-22T02:09:24;99273.00;;;3.03;69.44
36664;BME280;53333;51.976;20.144;2022-11-22T02:12:01;99268.66;;;3.02;69.38
36664;BME280;53333;51.976;20.144;2022-11-22T02:14:37;99272.09;;;3.04;69.30
36664;BME280;53333;51.976;20.144;2022-11-22T02:17:11;99268.56;;;3.05;69.17
36664;BME280;53333;51.976;20.144;2022-11-22T02:19:46;99258.91;;;3.04;69.36
36664;BME280;53333;51.976;20.144;2022-11-22T02:22:29;99260.59;;;3.06;69.24
36664;BME280;53333;51.976;20.144;2022-11-22T02:25:12;99263.28;;;3.05;69.27
36664;BME280;53333;51.976;20.144;2022-11-22T02:27:49;99260.63;;;3.05;69.04
36664;BME280;53333;51.976;20.144;2022-11-22T02:30:24;99251.84;;;3.04;68.89
36664;BME280;53333;51.976;20.144;2022-11-22T02:32:58;99250.97;;;3.04;68.96
36664;BME280;53333;51.976;20.144;2022-11-22T02:35:32;99238.63;;;3.04;69.07
36664;BME280;53333;51.976;20.144;2022-11-22T02:38:08;99233.38;;;3.04;68.92
36664;BME280;53333;51.976;20.144;2022-11-22T02:40:45;99223.69;;;3.05;68.84
36664;BME280;53333;51.976;20.144;2022-11-22T02:43:24;99226.38;;;3.03;68.83
36664;BME280;53333;51.976;20.144;2022-11-22T02:46:05;99226.47;;;3.00;68.77
36664;BME280;53333;51.976;20.144;2022-11-22T02:48:40;99225.66;;;2.98;68.86
36664;BME280;53333;51.976;20.144;2022-11-22T02:51:14;99234.50;;;2.97;68.61
36664;BME280;53333;51.976;20.144;2022-11-22T02:53:53;99223.19;;;2.94;68.58
36664;BME280;53333;51.976;20.144;2022-11-22T02:56:27;99221.50;;;2.91;68.84
36664;BME280;53333;51.976;20.144;2022-11-22T02:59:02;99216.16;;;2.93;68.77
36664;BME280;53333;51.976;20.144;2022-11-22T03:01:36;99218.81;;;2.93;68.77
36664;BME280;53333;51.976;20.144;2022-11-22T03:04:09;99217.91;;;2.94;68.82
36664;BME280;53333;51.976;20.144;2022-11-22T03:06:57;99219.72;;;2.91;68.86
36664;BME280;53333;51.976;20.144;2022-11-22T03:09:33;99225.91;;;2.90;68.81
36664;BME280;53333;51.976;20.144;2022-11-22T03:12:07;99226.81;;;2.89;68.66
36664;BME280;53333;51.976;20.144;2022-11-22T03:14:42;99234.69;;;2.91;68.72
36664;BME280;53333;51.976;20.144;2022-11-22T03:17:15;99232.03;;;2.91;68.88
36664;BME280;53333;51.976;20.144;2022-11-22T03:19:49;99230.25;;;2.91;68.84
36664;BME280;53333;51.976;20.144;2022-11-22T03:22:25;99220.53;;;2.94;68.82
36664;BME280;53333;51.976;20.144;2022-11-22T03:24:58;99222.25;;;2.95;68.77
36664;BME280;53333;51.976;20.144;2022-11-22T03:27:32;99222.25;;;2.95;68.68
36664;BME280;53333;51.976;20.144;2022-11-22T03:30:08;99225.75;;;2.95;68.93
36664;BME280;53333;51.976;20.144;2022-11-22T03:32:41;99224.03;;;2.94;68.89
36664;BME280;53333;51.976;20.144;2022-11-22T03:35:15;99217.03;;;2.93;68.93
36664;BME280;53333;51.976;20.144;2022-11-22T03:37:48;99222.34;;;2.91;69.02
36664;BME280;53333;51.976;20.144;2022-11-22T03:40:22;99221.50;;;2.91;69.07
36664;BME280;53333;51.976;20.144;2022-11-22T03:42:58;99224.19;;;2.89;69.22
36664;BME280;53333;51.976;20.144;2022-11-22T03:45:33;99235.72;;;2.85;69.15
36664;BME280;53333;51.976;20.144;2022-11-22T03:48:07;99230.44;;;2.85;69.34
36664;BME280;53333;51.976;20.144;2022-11-22T03:50:40;99231.38;;;2.84;69.51
36664;BME280;53333;51.976;20.144;2022-11-22T03:53:14;99234.06;;;2.83;69.48
36664;BME280;53333;51.976;20.144;2022-11-22T03:55:47;99227.97;;;2.81;69.49
36664;BME280;53333;51.976;20.144;2022-11-22T03:58:21;99227.09;;;2.80;69.70
36664;BME280;53333;51.976;20.144;2022-11-22T04:00:56;99234.22;;;2.78;69.80
36664;BME280;53333;51.976;20.144;2022-11-22T04:03:30;99232.44;;;2.79;69.99
36664;BME280;53333;51.976;20.144;2022-11-22T04:06:06;99235.03;;;2.80;69.90
36664;BME280;53333;51.976;20.144;2022-11-22T04:08:40;99230.59;;;2.81;69.92
36664;BME280;53333;51.976;20.144;2022-11-22T04:11:13;99233.22;;;2.81;69.80
36664;BME280;53333;51.976;20.144;2022-11-22T04:13:46;99234.13;;;2.81;69.97
36664;BME280;53333;51.976;20.144;2022-11-22T04:16:39;99238.47;;;2.82;69.96
36664;BME280;53333;51.976;20.144;2022-11-22T04:19:12;99233.19;;;2.82;69.97
36664;BME280;53333;51.976;20.144;2022-11-22T04:21:46;99232.28;;;2.83;70.11
36664;BME280;53333;51.976;20.144;2022-11-22T04:24:18;99226.16;;;2.83;70.17
36664;BME280;53333;51.976;20.144;2022-11-22T04:27:09;99227.06;;;2.82;70.10
36664;BME280;53333;51.976;20.144;2022-11-22T04:29:42;99230.59;;;2.81;70.26
36664;BME280;53333;51.976;20.144;2022-11-22T04:32:17;99225.38;;;2.79;70.25
36664;BME280;53333;51.976;20.144;2022-11-22T04:35:08;99225.38;;;2.79;70.29
36664;BME280;53333;51.976;20.144;2022-11-22T04:37:41;99228.88;;;2.80;70.33
36664;BME280;53333;51.976;20.144;2022-11-22T04:40:15;99233.28;;;2.79;70.47
36664;BME280;53333;51.976;20.144;2022-11-22T04:42:48;99238.63;;;2.78;70.56
36664;BME280;53333;51.976;20.144;2022-11-22T04:45:39;99245.75;;;2.74;70.48
36664;BME280;53333;51.976;20.144;2022-11-22T04:48:15;99239.63;;;2.73;70.67
36664;BME280;53333;51.976;20.144;2022-11-22T04:50:48;99243.13;;;2.74;70.58
36664;BME280;53333;51.976;20.144;2022-11-22T04:53:39;99239.59;;;2.75;70.59
36664;BME280;53333;51.976;20.144;2022-11-22T04:56:13;99239.59;;;2.75;70.74
36664;BME280;53333;51.976;20.144;2022-11-22T04:58:46;99239.59;;;2.75;70.92
36664;BME280;53333;51.976;20.144;2022-11-22T05:01:22;99242.25;;;2.73;71.04
36664;BME280;53333;51.976;20.144;2022-11-22T05:03:57;99241.31;;;2.76;70.90
36664;BME280;53333;51.976;20.144;2022-11-22T05:06:30;99242.19;;;2.77;70.99
36664;BME280;53333;51.976;20.144;2022-11-22T05:09:05;99242.13;;;2.78;71.06
36664;BME280;53333;51.976;20.144;2022-11-22T05:11:39;99236.84;;;2.78;71.00
36664;BME280;53333;51.976;20.144;2022-11-22T05:14:12;99229.78;;;2.79;71.22
36664;BME280;53333;51.976;20.144;2022-11-22T05:16:46;99236.00;;;2.78;71.25
36664;BME280;53333;51.976;20.144;2022-11-22T05:19:21;99230.78;;;2.76;71.28
36664;BME280;53333;51.976;20.144;2022-11-22T05:21:54;99234.25;;;2.77;71.31
36664;BME280;53333;51.976;20.144;2022-11-22T05:24:28;99249.09;;;2.79;71.30
36664;BME280;53333;51.976;20.144;2022-11-22T05:27:00;99245.56;;;2.80;71.40
36664;BME280;53333;51.976;20.144;2022-11-22T05:29:34;99246.41;;;2.81;71.42
36664;BME280;53333;51.976;20.144;2022-11-22T05:32:07;99243.41;;;2.93;70.67
36664;BME280;53333;51.976;20.144;2022-11-22T05:34:42;99249.06;;;2.81;71.12
36664;BME280;53333;51.976;20.144;2022-11-22T05:37:16;99252.63;;;2.80;71.23
36664;BME280;53333;51.976;20.144;2022-11-22T05:39:49;99250.94;;;2.77;71.22
36664;BME280;53333;51.976;20.144;2022-11-22T05:42:23;99249.19;;;2.78;71.37
36664;BME280;53333;51.976;20.144;2022-11-22T05:44:56;99252.78;;;2.75;71.48
36664;BME280;53333;51.976;20.144;2022-11-22T05:47:32;99255.41;;;2.75;71.66
36664;BME280;53333;51.976;20.144;2022-11-22T05:50:08;99259.75;;;2.78;71.60
36664;BME280;53333;51.976;20.144;2022-11-22T05:52:41;99264.94;;;2.79;71.58
36664;BME280;53333;51.976;20.144;2022-11-22T05:55:15;99255.31;;;2.78;71.61
36664;BME280;53333;51.976;20.144;2022-11-22T05:57:48;99265.78;;;2.81;71.67
36664;BME280;53333;51.976;20.144;2022-11-22T06:00:22;99264.84;;;2.82;71.57
36664;BME280;53333;51.976;20.144;2022-11-22T06:02:59;99264.84;;;2.82;71.66
36664;BME280;53333;51.976;20.144;2022-11-22T06:05:35;99257.91;;;2.80;71.70
36664;BME280;53333;51.976;20.144;2022-11-22T06:08:08;99273.72;;;2.80;71.72
36664;BME280;53333;51.976;20.144;2022-11-22T06:10:43;99279.84;;;2.80;71.66
36664;BME280;53333;51.976;20.144;2022-11-22T06:13:16;99278.03;;;2.82;71.72
36664;BME280;53333;51.976;20.144;2022-11-22T06:15:50;99273.63;;;2.83;71.83
36664;BME280;53333;51.976;20.144;2022-11-22T06:18:23;99273.63;;;2.83;71.67
36664;BME280;53333;51.976;20.144;2022-11-22T06:20:59;99274.50;;;2.83;71.93
36664;BME280;53333;51.976;20.144;2022-11-22T06:23:33;99274.59;;;2.80;71.69
36664;BME280;53333;51.976;20.144;2022-11-22T06:26:09;99266.72;;;2.79;71.78
36664;BME280;53333;51.976;20.144;2022-11-22T06:28:44;99263.19;;;2.80;71.74
36664;BME280;53333;51.976;20.144;2022-11-22T06:31:19;99266.72;;;2.79;71.92
36664;BME280;53333;51.976;20.144;2022-11-22T06:33:55;99277.31;;;2.77;71.87
36664;BME280;53333;51.976;20.144;2022-11-22T06:36:36;99278.25;;;2.76;71.99
36664;BME280;53333;51.976;20.144;2022-11-22T06:39:10;99275.59;;;2.76;71.77
36664;BME280;53333;51.976;20.144;2022-11-22T06:41:43;99281.69;;;2.78;71.92
36664;BME280;53333;51.976;20.144;2022-11-22T06:44:19;99284.38;;;2.77;71.91
36664;BME280;53333;51.976;20.144;2022-11-22T06:46:53;99288.78;;;2.76;72.08
36664;BME280;53333;51.976;20.144;2022-11-22T06:49:26;99286.97;;;2.78;71.95
36664;BME280;53333;51.976;20.144;2022-11-22T06:52:07;99291.38;;;2.78;71.95
36664;BME280;53333;51.976;20.144;2022-11-22T06:54:41;99293.94;;;2.79;71.85
36664;BME280;53333;51.976;20.144;2022-11-22T06:57:15;99293.94;;;2.79;72.05
36664;BME280;53333;51.976;20.144;2022-11-22T06:59:48;99298.38;;;2.79;72.04
36664;BME280;53333;51.976;20.144;2022-11-22T07:02:22;99299.31;;;2.78;72.00
36664;BME280;53333;51.976;20.144;2022-11-22T07:04:56;99301.00;;;2.79;71.92
36664;BME280;53333;51.976;20.144;2022-11-22T07:07:50;99304.50;;;2.79;72.09
36664;BME280;53333;51.976;20.144;2022-11-22T07:10:27;99310.66;;;2.80;72.04
36664;BME280;53333;51.976;20.144;2022-11-22T07:13:01;99307.09;;;2.81;71.97
36664;BME280;53333;51.976;20.144;2022-11-22T07:15:34;99310.66;;;2.80;72.08
36664;BME280;53333;51.976;20.144;2022-11-22T07:18:08;99316.69;;;2.83;72.07
36664;BME280;53333;51.976;20.144;2022-11-22T07:20:42;99313.97;;;2.86;71.85
36664;BME280;53333;51.976;20.144;2022-11-22T07:23:17;99302.56;;;2.86;72.05
36664;BME280;53333;51.976;20.144;2022-11-22T07:25:50;99306.00;;;2.88;71.99
36664;BME280;53333;51.976;20.144;2022-11-22T07:28:24;99295.41;;;2.89;71.98
36664;BME280;53333;51.976;20.144;2022-11-22T07:30:59;99308.56;;;2.91;72.12
36664;BME280;53333;51.976;20.144;2022-11-22T07:33:33;99308.50;;;2.93;71.94
36664;BME280;53333;51.976;20.144;2022-11-22T07:36:08;99304.97;;;2.94;72.03
36664;BME280;53333;51.976;20.144;2022-11-22T07:38:44;99302.34;;;2.94;72.12
36664;BME280;53333;51.976;20.144;2022-11-22T07:41:18;99319.78;;;2.98;72.27
36664;BME280;53333;51.976;20.144;2022-11-22T07:43:53;99311.75;;;3.01;72.13
36664;BME280;53333;51.976;20.144;2022-11-22T07:46:27;99315.16;;;3.04;71.79
36664;BME280;53333;51.976;20.144;2022-11-22T07:49:02;99316.94;;;3.04;71.96
36664;BME280;53333;51.976;20.144;2022-11-22T07:51:36;99318.59;;;3.08;71.78
36664;BME280;53333;51.976;20.144;2022-11-22T07:54:12;99322.84;;;3.12;71.71
36664;BME280;53333;51.976;20.144;2022-11-22T07:56:46;99313.88;;;3.18;71.75
36664;BME280;53333;51.976;20.144;2022-11-22T07:59:19;99316.06;;;3.32;71.50
36664;BME280;53333;51.976;20.144;2022-11-22T08:01:53;99321.16;;;3.38;71.46
36664;BME280;53333;51.976;20.144;2022-11-22T08:04:27;99335.00;;;3.44;71.41
36664;BME280;53333;51.976;20.144;2022-11-22T08:07:00;99327.81;;;3.50;71.16
36664;BME280;53333;51.976;20.144;2022-11-22T08:09:35;99319.75;;;3.54;70.96
36664;BME280;53333;51.976;20.144;2022-11-22T08:12:09;99317.97;;;3.55;71.10
36664;BME280;53333;51.976;20.144;2022-11-22T08:14:42;99316.13;;;3.57;70.78
36664;BME280;53333;51.976;20.144;2022-11-22T08:17:16;99329.97;;;3.63;70.68
36664;BME280;53333;51.976;20.144;2022-11-22T08:19:50;99326.34;;;3.68;70.61
36664;BME280;53333;51.976;20.144;2022-11-22T08:22:24;99317.22;;;3.76;70.43
36664;BME280;53333;51.976;20.144;2022-11-22T08:24:59;99316.06;;;3.85;70.30
36664;BME280;53333;51.976;20.144;2022-11-22T08:27:32;99317.56;;;3.92;70.13
36664;BME280;53333;51.976;20.144;2022-11-22T08:30:06;99313.78;;;3.99;69.87
36664;BME280;53333;51.976;20.144;2022-11-22T08:32:40;99313.91;;;3.96;69.77
36664;BME280;53333;51.976;20.144;2022-11-22T08:35:14;99312.09;;;3.97;69.78
36664;BME280;53333;51.976;20.144;2022-11-22T08:37:47;99305.97;;;3.96;69.77
36664;BME280;53333;51.976;20.144;2022-11-22T08:40:24;99310.34;;;3.97;69.66
36664;BME280;53333;51.976;20.144;2022-11-22T08:43:12;99313.84;;;3.98;69.44
36664;BME280;53333;51.976;20.144;2022-11-22T08:45:46;99312.84;;;4.02;69.42
36664;BME280;53333;51.976;20.144;2022-11-22T08:48:20;99314.75;;;3.97;69.14
36664;BME280;53333;51.976;20.144;2022-11-22T08:50:56;99315.63;;;3.97;69.14
36664;BME280;53333;51.976;20.144;2022-11-22T08:53:31;99322.72;;;3.95;69.15
36664;BME280;53333;51.976;20.144;2022-11-22T08:56:09;99320.31;;;3.89;69.12
36664;BME280;53333;51.976;20.144;2022-11-22T08:58:43;99313.41;;;3.85;69.26
36664;BME280;53333;51.976;20.144;2022-11-22T09:01:17;99315.31;;;3.81;69.16
36664;BME280;53333;51.976;20.144;2022-11-22T09:03:52;99322.44;;;3.78;69.13
36664;BME280;53333;51.976;20.144;2022-11-22T09:06:25;99332.22;;;3.76;69.14
36664;BME280;53333;51.976;20.144;2022-11-22T09:09:19;99322.56;;;3.75;69.17
36664;BME280;53333;51.976;20.144;2022-11-22T09:12:10;99327.03;;;3.73;69.21
36664;BME280;53333;51.976;20.144;2022-11-22T09:14:43;99331.63;;;3.68;69.16
36664;BME280;53333;51.976;20.144;2022-11-22T09:17:17;99344.78;;;3.69;69.27
36664;BME280;53333;51.976;20.144;2022-11-22T09:19:50;99338.63;;;3.69;69.28
36664;BME280;53333;51.976;20.144;2022-11-22T09:22:24;99344.66;;;3.72;69.24
36664;BME280;53333;51.976;20.144;2022-11-22T09:24:59;99342.94;;;3.71;69.33
36664;BME280;53333;51.976;20.144;2022-11-22T09:27:34;99354.44;;;3.70;69.29
36664;BME280;53333;51.976;20.144;2022-11-22T09:30:09;99347.66;;;3.61;69.02
36664;BME280;53333;51.976;20.144;2022-11-22T09:32:43;99351.25;;;3.59;69.15
36664;BME280;53333;51.976;20.144;2022-11-22T09:35:16;99355.69;;;3.58;69.22
36664;BME280;53333;51.976;20.144;2022-11-22T09:37:51;99352.28;;;3.55;69.17
36664;BME280;53333;51.976;20.144;2022-11-22T09:40:24;99360.25;;;3.53;68.98
36664;BME280;53333;51.976;20.144;2022-11-22T09:43:08;99369.13;;;3.51;69.08
36664;BME280;53333;51.976;20.144;2022-11-22T09:48:58;99368.47;;;3.44;68.82
36664;BME280;53333;51.976;20.144;2022-11-22T09:51:40;99368.63;;;3.39;68.94
36664;BME280;53333;51.976;20.144;2022-11-22T09:54:19;99365.97;;;3.39;68.86
36664;BME280;53333;51.976;20.144;2022-11-22T09:56:58;99369.50;;;3.40;68.94
36664;BME280;53333;51.976;20.144;2022-11-22T09:59:38;99368.44;;;3.45;68.83
36664;BME280;53333;51.976;20.144;2022-11-22T10:02:19;99363.16;;;3.45;68.66
36664;BME280;53333;51.976;20.144;2022-11-22T10:04:56;99357.00;;;3.45;68.69
36664;BME280;53333;51.976;20.144;2022-11-22T10:07:35;99353.44;;;3.46;68.76
36664;BME280;53333;51.976;20.144;2022-11-22T10:10:12;99362.19;;;3.48;68.60
36664;BME280;53333;51.976;20.144;2022-11-22T10:12:53;99356.81;;;3.51;68.56
36664;BME280;53333;51.976;20.144;2022-11-22T10:15:32;99349.59;;;3.56;68.59
36664;BME280;53333;51.976;20.144;2022-11-22T10:18:15;99348.53;;;3.62;68.36
36664;BME280;53333;51.976;20.144;2022-11-22T10:20:52;99332.63;;;3.63;68.13
36664;BME280;53333;51.976;20.144;2022-11-22T10:23:26;99329.06;;;3.64;68.22
36664;BME280;53333;51.976;20.144;2022-11-22T10:26:03;99339.59;;;3.66;68.28
36664;BME280;53333;51.976;20.144;2022-11-22T10:28:46;99336.84;;;3.69;68.10
36664;BME280;53333;51.976;20.144;2022-11-22T10:31:28;99338.59;;;3.70;68.05
36664;BME280;53333;51.976;20.144;2022-11-22T10:34:10;99335.13;;;3.68;68.03
36664;BME280;53333;51.976;20.144;2022-11-22T10:36:53;99326.38;;;3.66;67.92
36664;BME280;53333;51.976;20.144;2022-11-22T10:39:41;99327.13;;;3.70;67.97
36664;BME280;53333;51.976;20.144;2022-11-22T10:42:40;99324.25;;;3.77;67.89
36664;BME280;53333;51.976;20.144;2022-11-22T10:45:23;99326.72;;;3.82;67.79
36664;BME280;53333;51.976;20.144;2022-11-22T10:48:09;99331.84;;;3.87;67.62
36664;BME280;53333;51.976;20.144;2022-11-22T10:50:55;99326.56;;;3.87;67.72
36664;BME280;53333;51.976;20.144;2022-11-22T10:53:44;99319.50;;;3.87;67.88
36664;BME280;53333;51.976;20.144;2022-11-22T10:56:24;99311.47;;;3.90;67.71
36664;BME280;53333;51.976;20.144;2022-11-22T10:59:13;99318.22;;;3.99;67.76
36664;BME280;53333;51.976;20.144;2022-11-22T11:02:02;99301.31;;;4.03;67.55
36664;BME280;53333;51.976;20.144;2022-11-22T11:04:49;99305.66;;;4.06;67.37
36664;BME280;53333;51.976;20.144;2022-11-22T11:07:25;99306.41;;;4.09;67.36
36664;BME280;53333;51.976;20.144;2022-11-22T11:10:02;99310.84;;;4.09;67.25
36664;BME280;53333;51.976;20.144;2022-11-22T11:12:56;99312.53;;;4.10;67.38
36664;BME280;53333;51.976;20.144;2022-11-22T11:15:34;99310.72;;;4.12;67.31
36664;BME280;53333;51.976;20.144;2022-11-22T11:18:14;99311.47;;;4.15;67.21
36664;BME280;53333;51.976;20.144;2022-11-22T11:20:50;99304.22;;;4.21;67.15
36664;BME280;53333;51.976;20.144;2022-11-22T11:23:24;99312.84;;;4.26;66.92
36664;BME280;53333;51.976;20.144;2022-11-22T11:26:15;99314.31;;;4.34;66.98
36664;BME280;53333;51.976;20.144;2022-11-22T11:28:50;99318.59;;;4.37;66.92
36664;BME280;53333;51.976;20.144;2022-11-22T11:31:23;99316.38;;;4.50;66.63
36664;BME280;53333;51.976;20.144;2022-11-22T11:34:20;99324.56;;;4.44;66.65
36664;BME280;53333;51.976;20.144;2022-11-22T11:37:34;99325.31;;;4.47;66.65
36664;BME280;53333;51.976;20.144;2022-11-22T11:40:25;99321.09;;;4.42;66.63
36664;BME280;53333;51.976;20.144;2022-11-22T11:43:15;99331.56;;;4.45;66.63
36664;BME280;53333;51.976;20.144;2022-11-22T11:45:51;99333.56;;;4.38;66.68
36664;BME280;53333;51.976;20.144;2022-11-22T11:48:26;99338.91;;;4.36;66.81
36664;BME280;53333;51.976;20.144;2022-11-22T11:51:10;99324.84;;;4.36;66.71
36664;BME280;53333;51.976;20.144;2022-11-22T11:53:53;99325.63;;;4.38;66.78
36664;BME280;53333;51.976;20.144;2022-11-22T11:56:38;99317.69;;;4.38;66.76
36664;BME280;53333;51.976;20.144;2022-11-22T11:59:16;99312.34;;;4.40;66.75
36664;BME280;53333;51.976;20.144;2022-11-22T12:01:54;99309.59;;;4.43;66.73
36664;BME280;53333;51.976;20.144;2022-11-22T12:04:34;99307.81;;;4.43;66.74
36664;BME280;53333;51.976;20.144;2022-11-22T12:07:16;99315.75;;;4.43;66.60
36664;BME280;53333;51.976;20.144;2022-11-22T12:09:56;99305.28;;;4.40;66.65
36664;BME280;53333;51.976;20.144;2022-11-22T12:12:38;99307.97;;;4.39;66.59
36664;BME280;53333;51.976;20.144;2022-11-22T12:15:17;99308.13;;;4.34;66.75
36664;BME280;53333;51.976;20.144;2022-11-22T12:17:56;99294.06;;;4.33;66.70
36664;BME280;53333;51.976;20.144;2022-11-22T12:20:39;99295.84;;;4.33;66.69
36664;BME280;53333;51.976;20.144;2022-11-22T12:23:20;99294.19;;;4.30;66.60
36664;BME280;53333;51.976;20.144;2022-11-22T12:25:58;99293.44;;;4.27;66.50
36664;BME280;53333;51.976;20.144;2022-11-22T12:28:33;99298.72;;;4.27;66.54
36664;BME280;53333;51.976;20.144;2022-11-22T12:31:22;99300.47;;;4.28;66.61
36664;BME280;53333;51.976;20.144;2022-11-22T12:33:59;99302.28;;;4.26;66.56
36664;BME280;53333;51.976;20.144;2022-11-22T12:36:40;99294.34;;;4.26;66.60
36664;BME280;53333;51.976;20.144;2022-11-22T12:39:19;99306.81;;;4.22;66.67
36664;BME280;53333;51.976;20.144;2022-11-22T12:41:59;99314.06;;;4.17;66.62
36664;BME280;53333;51.976;20.144;2022-11-22T12:44:36;99314.16;;;4.14;66.70
36664;BME280;53333;51.976;20.144;2022-11-22T12:47:15;99300.25;;;4.09;66.92
36664;BME280;53333;51.976;20.144;2022-11-22T12:49:53;99302.06;;;4.07;66.70
36664;BME280;53333;51.976;20.144;2022-11-22T12:52:31;99298.53;;;4.08;66.92
36664;BME280;53333;51.976;20.144;2022-11-22T12:55:13;99296.69;;;4.10;66.97
36664;BME280;53333;51.976;20.144;2022-11-22T12:57:55;99287.84;;;4.11;66.94
36664;BME280;53333;51.976;20.144;2022-11-22T13:00:34;99286.09;;;4.10;66.87
36664;BME280;53333;51.976;20.144;2022-11-22T13:03:14;99289.69;;;4.09;66.89
36664;BME280;53333;51.976;20.144;2022-11-22T13:05:52;99302.97;;;4.07;67.00
36664;BME280;53333;51.976;20.144;2022-11-22T13:08:31;99296.00;;;4.05;67.08
36664;BME280;53333;51.976;20.144;2022-11-22T13:11:13;99293.41;;;4.03;67.14
36664;BME280;53333;51.976;20.144;2022-11-22T13:13:53;99296.97;;;4.02;67.24
36664;BME280;53333;51.976;20.144;2022-11-22T13:16:30;99300.41;;;4.04;67.18
36664;BME280;53333;51.976;20.144;2022-11-22T13:19:05;99301.28;;;4.05;67.26
36664;BME280;53333;51.976;20.144;2022-11-22T13:29:39;99291.75;;;4.00;67.15
36664;BME280;53333;51.976;20.144;2022-11-22T13:32:18;99283.03;;;3.97;67.17
36664;BME280;53333;51.976;20.144;2022-11-22T13:35:04;99285.69;;;3.97;67.21
36664;BME280;53333;51.976;20.144;2022-11-22T13:37:40;99282.81;;;4.03;66.92
36664;BME280;53333;51.976;20.144;2022-11-22T13:40:31;99283.03;;;3.97;67.25
36664;BME280;53333;51.976;20.144;2022-11-22T13:46:52;99271.88;;;3.89;67.29
36664;BME280;53333;51.976;20.144;2022-11-22T13:49:33;99276.09;;;3.94;67.03
36664;BME280;53333;51.976;20.144;2022-11-22T13:52:51;99273.69;;;3.88;67.21
36664;BME280;53333;51.976;20.144;2022-11-22T13:55:31;99271.28;;;3.80;67.37
36664;BME280;53333;51.976;20.144;2022-11-22T14:02:01;99276.59;;;3.80;67.49
36664;BME280;53333;51.976;20.144;2022-11-22T14:04:40;99282.94;;;3.75;67.79
36664;BME280;53333;51.976;20.144;2022-11-22T14:07:33;99289.03;;;3.77;67.85
36664;BME280;53333;51.976;20.144;2022-11-22T14:10:26;99281.97;;;3.77;67.62